sensor_id;sensor_type;location;lat;lon;timestamp;temperature;humidity
12911;DHT22;6523;49.758;6.120;2023-12-14T00:01:32;7.80;99.90
12911;DHT22;6523;49.758;6.120;2023-12-14T00:03:57;7.80;99.90
12911;DHT22;6523;49.758;6.120;2023-12-14T00:06:23;7.80;99.90
12911;DHT22;6523;49.758;6.120;2023-12-14T00:08:48;7.80;99.90
12911;DHT22;6523;49.758;6.120;2023-12-14T00:11:14;7.80;99.90
12911;DHT22;6523;49.758;6.120;2023-12-14T00:13:40;7.80;99.90
12911;DHT22;6523;49.758;6.120;2023-12-14T00:16:06;7.80;99.90
12911;DHT22;6523;49.758;6.120;2023-12-14T00:18:32;7.80;99.90
12911;DHT22;6523;49.758;6.120;2023-12-14T00:20:58;7.80;99.90
12911;DHT22;6523;49.758;6.120;2023-12-14T00:23:24;7.80;99.90
12911;DHT22;6523;49.758;6.120;2023-12-14T00:25:50;7.80;99.90
12911;DHT22;6523;49.758;6.120;2023-12-14T00:28:16;7.80;99.90
12911;DHT22;6523;49.758;6.120;2023-12-14T00:30:41;7.80;99.90
12911;DHT22;6523;49.758;6.120;2023-12-14T00:33:07;7.80;99.90
12911;DHT22;6523;49.758;6.120;2023-12-14T00:35:32;7.80;99.90
12911;DHT22;6523;49.758;6.120;2023-12-14T00:37:58;7.80;99.90
12911;DHT22;6523;49.758;6.120;2023-12-14T00:40:23;7.80;99.90
12911;DHT22;6523;49.758;6.120;2023-12-14T00:42:50;7.80;99.90
12911;DHT22;6523;49.758;6.120;2023-12-14T00:45:16;7.80;99.90
12911;DHT22;6523;49.758;6.120;2023-12-14T00:47:41;7.80;99.90
12911;DHT22;6523;49.758;6.120;2023-12-14T00:50:07;7.80;99.90
12911;DHT22;6523;49.758;6.120;2023-12-14T00:52:33;7.70;99.90
12911;DHT22;6523;49.758;6.120;2023-12-14T00:54:58;7.70;99.90
12911;DHT22;6523;49.758;6.120;2023-12-14T00:57:24;7.70;99.90
12911;DHT22;6523;49.758;6.120;2023-12-14T00:59:49;7.70;99.90
12911;DHT22;6523;49.758;6.120;2023-12-14T01:02:15;7.70;99.90
12911;DHT22;6523;49.758;6.120;2023-12-14T01:04:41;7.70;99.90
12911;DHT22;6523;49.758;6.120;2023-12-14T01:07:07;7.70;99.90
12911;DHT22;6523;49.758;6.120;2023-12-14T01:09:33;7.70;99.90
12911;DHT22;6523;49.758;6.120;2023-12-14T01:11:58;7.70;99.90
12911;DHT22;6523;49.758;6.120;2023-12-14T01:14:24;7.70;99.90
12911;DHT22;6523;49.758;6.120;2023-12-14T01:16:49;7.70;99.90
12911;DHT22;6523;49.758;6.120;2023-12-14T01:19:15;7.60;99.90
12911;DHT22;6523;49.758;6.120;2023-12-14T01:21:41;7.60;99.90
12911;DHT22;6523;49.758;6.120;2023-12-14T01:24:06;7.60;99.90
12911;DHT22;6523;49.758;6.120;2023-12-14T01:26:32;7.50;99.90
12911;DHT22;6523;49.758;6.120;2023-12-14T01:28:57;7.50;99.90
12911;DHT22;6523;49.758;6.120;2023-12-14T01:31:24;7.50;99.90
12911;DHT22;6523;49.758;6.120;2023-12-14T01:33:51;7.40;99.90
12911;DHT22;6523;49.758;6.120;2023-12-14T01:36:20;7.40;99.90
12911;DHT22;6523;49.758;6.120;2023-12-14T01:38:47;7.40;99.90
12911;DHT22;6523;49.758;6.120;2023-12-14T01:41:12;7.50;99.90
12911;DHT22;6523;49.758;6.120;2023-12-14T01:43:38;7.40;99.90
12911;DHT22;6523;49.758;6.120;2023-12-14T01:46:03;7.40;99.90
12911;DHT22;6523;49.758;6.120;2023-12-14T01:48:29;7.40;99.90
12911;DHT22;6523;49.758;6.120;2023-12-14T01:50:54;7.40;99.90
12911;DHT22;6523;49.758;6.120;2023-12-14T01:53:21;7.40;99.90
12911;DHT22;6523;49.758;6.120;2023-12-14T01:55:46;7.40;99.90
12911;DHT22;6523;49.758;6.120;2023-12-14T01:58:12;7.40;99.90
12911;DHT22;6523;49.758;6.120;2023-12-14T02:03:25;7.40;99.90
12911;DHT22;6523;49.758;6.120;2023-12-14T02:05:51;7.40;99.90
12911;DHT22;6523;49.758;6.120;2023-12-14T02:08:16;7.40;99.90
12911;DHT22;6523;49.758;6.120;2023-12-14T02:10:42;7.50;99.90
12911;DHT22;6523;49.758;6.120;2023-12-14T02:13:07;7.40;99.90
12911;DHT22;6523;49.758;6.120;2023-12-14T02:15:33;7.30;99.90
12911;DHT22;6523;49.758;6.120;2023-12-14T02:17:59;7.30;99.90
12911;DHT22;6523;49.758;6.120;2023-12-14T02:20:24;7.30;99.90
12911;DHT22;6523;49.758;6.120;2023-12-14T02:22:53;7.30;99.90
12911;DHT22;6523;49.758;6.120;2023-12-14T02:25:20;7.30;99.90
12911;DHT22;6523;49.758;6.120;2023-12-14T02:27:46;7.40;99.90
12911;DHT22;6523;49.758;6.120;2023-12-14T02:30:13;7.30;99.90
12911;DHT22;6523;49.758;6.120;2023-12-14T02:32:39;7.30;99.90
12911;DHT22;6523;49.758;6.120;2023-12-14T02:35:06;7.30;99.90
12911;DHT22;6523;49.758;6.120;2023-12-14T02:37:32;7.40;99.90
12911;DHT22;6523;49.758;6.120;2023-12-14T02:39:58;7.40;99.90
12911;DHT22;6523;49.758;6.120;2023-12-14T02:42:24;7.20;99.90
12911;DHT22;6523;49.758;6.120;2023-12-14T02:44:50;7.20;99.90
12911;DHT22;6523;49.758;6.120;2023-12-14T02:47:16;7.10;99.90
12911;DHT22;6523;49.758;6.120;2023-12-14T02:49:42;7.10;99.90
12911;DHT22;6523;49.758;6.120;2023-12-14T02:52:08;7.10;99.90
12911;DHT22;6523;49.758;6.120;2023-12-14T02:54:33;7.10;99.90
12911;DHT22;6523;49.758;6.120;2023-12-14T02:56:59;7.10;99.90
12911;DHT22;6523;49.758;6.120;2023-12-14T02:59:25;7.20;99.90
12911;DHT22;6523;49.758;6.120;2023-12-14T03:01:50;7.20;99.90
12911;DHT22;6523;49.758;6.120;2023-12-14T03:04:16;7.20;99.90
12911;DHT22;6523;49.758;6.120;2023-12-14T03:06:41;7.20;99.90
12911;DHT22;6523;49.758;6.120;2023-12-14T03:09:07;7.20;99.90
12911;DHT22;6523;49.758;6.120;2023-12-14T03:11:32;7.30;99.90
12911;DHT22;6523;49.758;6.120;2023-12-14T03:13:58;7.20;99.90
12911;DHT22;6523;49.758;6.120;2023-12-14T03:16:24;7.20;99.90
12911;DHT22;6523;49.758;6.120;2023-12-14T03:18:49;7.20;99.90
12911;DHT22;6523;49.758;6.120;2023-12-14T03:21:18;7.00;99.90
12911;DHT22;6523;49.758;6.120;2023-12-14T03:23:44;6.80;99.90
12911;DHT22;6523;49.758;6.120;2023-12-14T03:26:10;6.80;99.90
12911;DHT22;6523;49.758;6.120;2023-12-14T03:28:36;6.80;99.90
12911;DHT22;6523;49.758;6.120;2023-12-14T03:31:02;6.80;99.90
12911;DHT22;6523;49.758;6.120;2023-12-14T03:33:27;6.80;99.90
12911;DHT22;6523;49.758;6.120;2023-12-14T03:35:53;6.70;99.90
12911;DHT22;6523;49.758;6.120;2023-12-14T03:38:19;6.60;99.90
12911;DHT22;6523;49.758;6.120;2023-12-14T03:40:44;6.70;99.90
12911;DHT22;6523;49.758;6.120;2023-12-14T03:43:10;6.60;99.90
12911;DHT22;6523;49.758;6.120;2023-12-14T03:45:36;6.60;99.90
12911;DHT22;6523;49.758;6.120;2023-12-14T03:48:01;6.60;99.90
12911;DHT22;6523;49.758;6.120;2023-12-14T03:50:27;6.70;99.90
12911;DHT22;6523;49.758;6.120;2023-12-14T03:52:53;6.70;99.90
12911;DHT22;6523;49.758;6.120;2023-12-14T03:55:19;6.60;99.90
12911;DHT22;6523;49.758;6.120;2023-12-14T03:57:44;6.70;99.90
12911;DHT22;6523;49.758;6.120;2023-12-14T04:00:13;6.80;99.90
12911;DHT22;6523;49.758;6.120;2023-12-14T04:02:39;6.80;99.90
12911;DHT22;6523;49.758;6.120;2023-12-14T04:05:07;6.90;99.90
12911;DHT22;6523;49.758;6.120;2023-12-14T04:07:35;6.90;99.90
12911;DHT22;6523;49.758;6.120;2023-12-14T04:10:01;6.90;99.90
12911;DHT22;6523;49.758;6.120;2023-12-14T04:12:26;7.00;99.90
12911;DHT22;6523;49.758;6.120;2023-12-14T04:14:52;7.00;99.90
12911;DHT22;6523;49.758;6.120;2023-12-14T04:17:17;7.10;99.90
12911;DHT22;6523;49.758;6.120;2023-12-14T04:19:43;7.00;99.90
12911;DHT22;6523;49.758;6.120;2023-12-14T04:22:09;6.90;99.90
12911;DHT22;6523;49.758;6.120;2023-12-14T04:24:34;7.00;99.90
12911;DHT22;6523;49.758;6.120;2023-12-14T04:27:00;6.90;99.90
12911;DHT22;6523;49.758;6.120;2023-12-14T04:29:25;6.90;99.90
12911;DHT22;6523;49.758;6.120;2023-12-14T04:31:51;6.80;99.90
12911;DHT22;6523;49.758;6.120;2023-12-14T04:34:18;6.90;99.90
12911;DHT22;6523;49.758;6.120;2023-12-14T04:36:45;6.90;99.90
12911;DHT22;6523;49.758;6.120;2023-12-14T04:39:11;6.90;99.90
12911;DHT22;6523;49.758;6.120;2023-12-14T04:41:37;6.90;99.90
12911;DHT22;6523;49.758;6.120;2023-12-14T04:44:03;6.80;99.90
12911;DHT22;6523;49.758;6.120;2023-12-14T04:46:28;6.90;99.90
12911;DHT22;6523;49.758;6.120;2023-12-14T04:48:55;6.90;99.90
12911;DHT22;6523;49.758;6.120;2023-12-14T04:51:20;6.80;99.90
12911;DHT22;6523;49.758;6.120;2023-12-14T04:53:46;6.70;99.90
12911;DHT22;6523;49.758;6.120;2023-12-14T04:56:12;6.60;99.90
12911;DHT22;6523;49.758;6.120;2023-12-14T04:58:41;6.60;99.90
12911;DHT22;6523;49.758;6.120;2023-12-14T05:01:07;6.60;99.90
12911;DHT22;6523;49.758;6.120;2023-12-14T05:03:36;6.60;99.90
12911;DHT22;6523;49.758;6.120;2023-12-14T05:06:02;6.70;99.90
12911;DHT22;6523;49.758;6.120;2023-12-14T05:08:28;6.70;99.90
12911;DHT22;6523;49.758;6.120;2023-12-14T05:10:53;6.50;99.90
12911;DHT22;6523;49.758;6.120;2023-12-14T05:13:19;6.40;99.90
12911;DHT22;6523;49.758;6.120;2023-12-14T05:15:44;6.30;99.90
12911;DHT22;6523;49.758;6.120;2023-12-14T05:18:10;6.20;99.90
12911;DHT22;6523;49.758;6.120;2023-12-14T05:20:35;6.40;99.90
12911;DHT22;6523;49.758;6.120;2023-12-14T05:23:01;6.40;99.90
12911;DHT22;6523;49.758;6.120;2023-12-14T05:25:27;6.20;99.90
12911;DHT22;6523;49.758;6.120;2023-12-14T05:27:53;6.40;99.90
12911;DHT22;6523;49.758;6.120;2023-12-14T05:30:19;6.40;99.90
12911;DHT22;6523;49.758;6.120;2023-12-14T05:32:45;6.40;99.90
12911;DHT22;6523;49.758;6.120;2023-12-14T05:35:10;6.50;99.90
12911;DHT22;6523;49.758;6.120;2023-12-14T05:37:38;6.60;99.90
12911;DHT22;6523;49.758;6.120;2023-12-14T05:40:04;6.60;99.90
12911;DHT22;6523;49.758;6.120;2023-12-14T05:42:30;6.40;99.90
12911;DHT22;6523;49.758;6.120;2023-12-14T05:44:55;6.30;99.90
12911;DHT22;6523;49.758;6.120;2023-12-14T05:47:21;6.30;99.90
12911;DHT22;6523;49.758;6.120;2023-12-14T05:49:47;6.20;99.90
12911;DHT22;6523;49.758;6.120;2023-12-14T05:52:12;6.30;99.90
12911;DHT22;6523;49.758;6.120;2023-12-14T05:54:38;6.30;99.90
12911;DHT22;6523;49.758;6.120;2023-12-14T05:57:05;6.50;99.90
12911;DHT22;6523;49.758;6.120;2023-12-14T05:59:31;6.40;99.90
12911;DHT22;6523;49.758;6.120;2023-12-14T06:01:58;6.40;99.90
12911;DHT22;6523;49.758;6.120;2023-12-14T06:04:24;6.40;99.90
12911;DHT22;6523;49.758;6.120;2023-12-14T06:06:50;6.50;99.90
12911;DHT22;6523;49.758;6.120;2023-12-14T06:09:15;6.60;99.90
12911;DHT22;6523;49.758;6.120;2023-12-14T06:11:42;6.60;99.90
12911;DHT22;6523;49.758;6.120;2023-12-14T06:14:08;6.60;99.90
12911;DHT22;6523;49.758;6.120;2023-12-14T06:16:34;6.60;99.90
12911;DHT22;6523;49.758;6.120;2023-12-14T06:18:59;6.60;99.90
12911;DHT22;6523;49.758;6.120;2023-12-14T06:21:25;6.60;99.90
12911;DHT22;6523;49.758;6.120;2023-12-14T06:23:53;6.60;99.90
12911;DHT22;6523;49.758;6.120;2023-12-14T06:26:19;6.60;99.90
12911;DHT22;6523;49.758;6.120;2023-12-14T06:28:45;6.60;99.90
12911;DHT22;6523;49.758;6.120;2023-12-14T06:31:14;6.60;99.90
12911;DHT22;6523;49.758;6.120;2023-12-14T06:33:40;6.60;99.90
12911;DHT22;6523;49.758;6.120;2023-12-14T06:36:07;6.70;99.90
12911;DHT22;6523;49.758;6.120;2023-12-14T06:38:33;6.70;99.90
12911;DHT22;6523;49.758;6.120;2023-12-14T06:40:59;6.70;99.90
12911;DHT22;6523;49.758;6.120;2023-12-14T06:43:24;6.70;99.90
12911;DHT22;6523;49.758;6.120;2023-12-14T06:45:50;6.70;99.90
12911;DHT22;6523;49.758;6.120;2023-12-14T06:48:15;6.60;99.90
12911;DHT22;6523;49.758;6.120;2023-12-14T06:50:41;6.60;99.90
12911;DHT22;6523;49.758;6.120;2023-12-14T06:53:06;6.60;99.90
12911;DHT22;6523;49.758;6.120;2023-12-14T06:55:32;6.70;99.90
12911;DHT22;6523;49.758;6.120;2023-12-14T06:57:57;6.70;99.90
12911;DHT22;6523;49.758;6.120;2023-12-14T07:00:23;6.70;99.90
12911;DHT22;6523;49.758;6.120;2023-12-14T07:02:48;6.70;99.90
12911;DHT22;6523;49.758;6.120;2023-12-14T07:05:14;6.80;99.90
12911;DHT22;6523;49.758;6.120;2023-12-14T07:07:41;6.70;99.90
12911;DHT22;6523;49.758;6.120;2023-12-14T07:10:06;6.80;99.90
12911;DHT22;6523;49.758;6.120;2023-12-14T07:12:32;6.80;99.90
12911;DHT22;6523;49.758;6.120;2023-12-14T07:14:58;6.80;99.90
12911;DHT22;6523;49.758;6.120;2023-12-14T07:17:23;6.80;99.90
12911;DHT22;6523;49.758;6.120;2023-12-14T07:19:51;6.80;99.90
12911;DHT22;6523;49.758;6.120;2023-12-14T07:22:16;6.80;99.90
12911;DHT22;6523;49.758;6.120;2023-12-14T07:24:42;6.80;99.90
12911;DHT22;6523;49.758;6.120;2023-12-14T07:27:07;6.80;99.90
12911;DHT22;6523;49.758;6.120;2023-12-14T07:29:33;6.80;99.90
12911;DHT22;6523;49.758;6.120;2023-12-14T07:31:59;6.80;99.90
12911;DHT22;6523;49.758;6.120;2023-12-14T07:34:24;6.80;99.90
12911;DHT22;6523;49.758;6.120;2023-12-14T07:36:50;6.80;99.90
12911;DHT22;6523;49.758;6.120;2023-12-14T07:39:16;6.80;99.90
12911;DHT22;6523;49.758;6.120;2023-12-14T07:41:41;6.80;99.90
12911;DHT22;6523;49.758;6.120;2023-12-14T07:44:07;6.80;99.90
12911;DHT22;6523;49.758;6.120;2023-12-14T07:46:32;6.90;99.90
12911;DHT22;6523;49.758;6.120;2023-12-14T07:48:58;6.90;99.90
12911;DHT22;6523;49.758;6.120;2023-12-14T07:51:24;6.80;99.90
12911;DHT22;6523;49.758;6.120;2023-12-14T07:53:49;6.80;99.90
12911;DHT22;6523;49.758;6.120;2023-12-14T07:56:15;6.80;99.90
12911;DHT22;6523;49.758;6.120;2023-12-14T07:58:40;6.70;99.90
12911;DHT22;6523;49.758;6.120;2023-12-14T08:01:06;6.70;99.90
12911;DHT22;6523;49.758;6.120;2023-12-14T08:03:32;6.70;99.90
12911;DHT22;6523;49.758;6.120;2023-12-14T08:05:57;6.80;99.90
12911;DHT22;6523;49.758;6.120;2023-12-14T08:08:23;6.80;99.90
12911;DHT22;6523;49.758;6.120;2023-12-14T08:10:49;6.70;99.90
12911;DHT22;6523;49.758;6.120;2023-12-14T08:13:15;6.80;99.90
12911;DHT22;6523;49.758;6.120;2023-12-14T08:15:40;6.80;99.90
12911;DHT22;6523;49.758;6.120;2023-12-14T08:18:06;6.90;99.90
12911;DHT22;6523;49.758;6.120;2023-12-14T08:20:32;7.00;99.90
12911;DHT22;6523;49.758;6.120;2023-12-14T08:22:58;7.10;99.90
12911;DHT22;6523;49.758;6.120;2023-12-14T08:25:24;7.10;99.90
12911;DHT22;6523;49.758;6.120;2023-12-14T08:27:49;7.20;99.90
12911;DHT22;6523;49.758;6.120;2023-12-14T08:30:16;7.30;99.90
12911;DHT22;6523;49.758;6.120;2023-12-14T08:32:42;7.20;99.90
12911;DHT22;6523;49.758;6.120;2023-12-14T08:35:08;7.30;99.90
12911;DHT22;6523;49.758;6.120;2023-12-14T08:37:35;7.40;99.90
12911;DHT22;6523;49.758;6.120;2023-12-14T08:40:01;7.50;99.90
12911;DHT22;6523;49.758;6.120;2023-12-14T08:42:27;7.50;99.90
12911;DHT22;6523;49.758;6.120;2023-12-14T08:44:52;7.60;99.90
12911;DHT22;6523;49.758;6.120;2023-12-14T08:47:18;7.60;99.90
12911;DHT22;6523;49.758;6.120;2023-12-14T08:49:44;7.60;99.90
12911;DHT22;6523;49.758;6.120;2023-12-14T08:52:09;7.60;99.90
12911;DHT22;6523;49.758;6.120;2023-12-14T08:54:37;7.60;99.90
12911;DHT22;6523;49.758;6.120;2023-12-14T08:57:02;7.60;99.90
12911;DHT22;6523;49.758;6.120;2023-12-14T08:59:28;7.60;99.90
12911;DHT22;6523;49.758;6.120;2023-12-14T09:01:54;7.70;99.90
12911;DHT22;6523;49.758;6.120;2023-12-14T09:04:19;7.70;99.90
12911;DHT22;6523;49.758;6.120;2023-12-14T09:06:46;7.80;99.90
12911;DHT22;6523;49.758;6.120;2023-12-14T09:09:12;7.70;99.90
12911;DHT22;6523;49.758;6.120;2023-12-14T09:11:38;7.80;99.90
12911;DHT22;6523;49.758;6.120;2023-12-14T09:14:03;7.90;99.90
12911;DHT22;6523;49.758;6.120;2023-12-14T09:16:29;7.90;99.90
12911;DHT22;6523;49.758;6.120;2023-12-14T09:18:54;7.90;99.90
12911;DHT22;6523;49.758;6.120;2023-12-14T09:21:20;8.00;99.90
12911;DHT22;6523;49.758;6.120;2023-12-14T09:23:45;8.00;99.90
12911;DHT22;6523;49.758;6.120;2023-12-14T09:26:11;8.00;99.90
12911;DHT22;6523;49.758;6.120;2023-12-14T09:28:37;8.00;99.90
12911;DHT22;6523;49.758;6.120;2023-12-14T09:31:03;8.00;99.90
12911;DHT22;6523;49.758;6.120;2023-12-14T09:33:28;8.00;99.90
12911;DHT22;6523;49.758;6.120;2023-12-14T09:35:54;8.10;99.90
12911;DHT22;6523;49.758;6.120;2023-12-14T09:38:20;8.10;99.90
12911;DHT22;6523;49.758;6.120;2023-12-14T09:40:46;8.10;99.90
12911;DHT22;6523;49.758;6.120;2023-12-14T09:43:11;8.10;99.90
12911;DHT22;6523;49.758;6.120;2023-12-14T09:45:40;8.10;99.90
12911;DHT22;6523;49.758;6.120;2023-12-14T09:48:10;8.00;99.90
12911;DHT22;6523;49.758;6.120;2023-12-14T09:50:38;8.00;99.90
12911;DHT22;6523;49.758;6.120;2023-12-14T09:53:04;8.00;99.90
12911;DHT22;6523;49.758;6.120;2023-12-14T09:55:29;8.00;99.90
12911;DHT22;6523;49.758;6.120;2023-12-14T09:57:56;8.00;99.90
12911;DHT22;6523;49.758;6.120;2023-12-14T10:00:33;8.10;99.90
12911;DHT22;6523;49.758;6.120;2023-12-14T10:03:18;8.20;99.90
12911;DHT22;6523;49.758;6.120;2023-12-14T10:05:45;8.10;99.90
12911;DHT22;6523;49.758;6.120;2023-12-14T10:08:10;8.10;99.90
12911;DHT22;6523;49.758;6.120;2023-12-14T10:10:36;8.00;99.90
12911;DHT22;6523;49.758;6.120;2023-12-14T10:13:01;8.00;99.90
12911;DHT22;6523;49.758;6.120;2023-12-14T10:15:27;8.00;99.90
12911;DHT22;6523;49.758;6.120;2023-12-14T10:17:53;8.00;99.90
12911;DHT22;6523;49.758;6.120;2023-12-14T10:20:23;7.90;99.90
12911;DHT22;6523;49.758;6.120;2023-12-14T10:22:52;7.90;99.90
12911;DHT22;6523;49.758;6.120;2023-12-14T10:25:18;7.90;99.90
12911;DHT22;6523;49.758;6.120;2023-12-14T10:27:48;7.90;99.90
12911;DHT22;6523;49.758;6.120;2023-12-14T10:30:16;7.90;99.90
12911;DHT22;6523;49.758;6.120;2023-12-14T10:32:42;7.70;99.90
12911;DHT22;6523;49.758;6.120;2023-12-14T10:35:08;7.60;99.90
12911;DHT22;6523;49.758;6.120;2023-12-14T10:37:37;7.50;99.90
12911;DHT22;6523;49.758;6.120;2023-12-14T10:40:05;7.50;99.90
12911;DHT22;6523;49.758;6.120;2023-12-14T10:42:32;7.40;99.90
12911;DHT22;6523;49.758;6.120;2023-12-14T10:45:03;7.40;99.90
12911;DHT22;6523;49.758;6.120;2023-12-14T10:47:29;7.40;99.90
12911;DHT22;6523;49.758;6.120;2023-12-14T10:49:55;7.40;99.90
12911;DHT22;6523;49.758;6.120;2023-12-14T10:52:23;7.30;99.90
12911;DHT22;6523;49.758;6.120;2023-12-14T10:54:53;7.20;99.90
12911;DHT22;6523;49.758;6.120;2023-12-14T10:57:21;7.10;99.90
12911;DHT22;6523;49.758;6.120;2023-12-14T10:59:49;7.00;99.90
12911;DHT22;6523;49.758;6.120;2023-12-14T11:02:15;6.90;99.90
12911;DHT22;6523;49.758;6.120;2023-12-14T11:05:00;6.90;99.90
12911;DHT22;6523;49.758;6.120;2023-12-14T11:07:54;6.90;99.90
12911;DHT22;6523;49.758;6.120;2023-12-14T11:10:39;6.90;99.90
12911;DHT22;6523;49.758;6.120;2023-12-14T11:13:10;6.90;99.90
12911;DHT22;6523;49.758;6.120;2023-12-14T11:15:38;7.00;99.90
12911;DHT22;6523;49.758;6.120;2023-12-14T11:20:54;7.10;99.90
12911;DHT22;6523;49.758;6.120;2023-12-14T11:25:51;7.20;99.90
12911;DHT22;6523;49.758;6.120;2023-12-14T11:28:19;7.10;99.90
12911;DHT22;6523;49.758;6.120;2023-12-14T11:30:45;7.30;99.90
12911;DHT22;6523;49.758;6.120;2023-12-14T11:33:12;7.20;99.90
12911;DHT22;6523;49.758;6.120;2023-12-14T11:35:37;7.10;99.90
12911;DHT22;6523;49.758;6.120;2023-12-14T11:38:03;7.00;99.90
12911;DHT22;6523;49.758;6.120;2023-12-14T11:40:36;7.10;99.90
12911;DHT22;6523;49.758;6.120;2023-12-14T11:43:03;7.10;99.90
12911;DHT22;6523;49.758;6.120;2023-12-14T11:45:39;7.10;99.90
12911;DHT22;6523;49.758;6.120;2023-12-14T11:48:07;7.20;99.90
12911;DHT22;6523;49.758;6.120;2023-12-14T11:50:33;7.30;99.90
12911;DHT22;6523;49.758;6.120;2023-12-14T11:53:03;7.20;99.90
12911;DHT22;6523;49.758;6.120;2023-12-14T11:55:29;7.20;99.90
12911;DHT22;6523;49.758;6.120;2023-12-14T11:57:56;7.20;99.90
12911;DHT22;6523;49.758;6.120;2023-12-14T12:00:29;7.10;99.90
12911;DHT22;6523;49.758;6.120;2023-12-14T12:05:46;7.00;99.90
12911;DHT22;6523;49.758;6.120;2023-12-14T12:08:12;7.00;99.90
12911;DHT22;6523;49.758;6.120;2023-12-14T12:10:39;6.90;99.90
12911;DHT22;6523;49.758;6.120;2023-12-14T12:13:17;6.90;99.90
12911;DHT22;6523;49.758;6.120;2023-12-14T12:15:43;6.90;99.90
12911;DHT22;6523;49.758;6.120;2023-12-14T12:18:13;6.90;99.90
12911;DHT22;6523;49.758;6.120;2023-12-14T12:20:40;6.80;99.90
12911;DHT22;6523;49.758;6.120;2023-12-14T12:23:06;6.80;99.90
12911;DHT22;6523;49.758;6.120;2023-12-14T12:25:32;6.80;99.90
12911;DHT22;6523;49.758;6.120;2023-12-14T12:27:59;6.80;99.90
12911;DHT22;6523;49.758;6.120;2023-12-14T12:30:25;6.80;99.90
12911;DHT22;6523;49.758;6.120;2023-12-14T12:32:51;6.80;99.90
12911;DHT22;6523;49.758;6.120;2023-12-14T12:35:20;6.80;99.90
12911;DHT22;6523;49.758;6.120;2023-12-14T12:37:46;6.80;99.90
12911;DHT22;6523;49.758;6.120;2023-12-14T12:40:12;6.80;99.90
12911;DHT22;6523;49.758;6.120;2023-12-14T12:42:40;6.90;99.90
12911;DHT22;6523;49.758;6.120;2023-12-14T12:45:06;6.90;99.90
12911;DHT22;6523;49.758;6.120;2023-12-14T12:47:32;6.80;99.90
12911;DHT22;6523;49.758;6.120;2023-12-14T12:49:58;6.80;99.90
12911;DHT22;6523;49.758;6.120;2023-12-14T12:52:23;6.90;99.90
12911;DHT22;6523;49.758;6.120;2023-12-14T12:54:49;6.90;99.90
12911;DHT22;6523;49.758;6.120;2023-12-14T12:57:15;6.90;99.90
12911;DHT22;6523;49.758;6.120;2023-12-14T12:59:40;6.90;99.90
12911;DHT22;6523;49.758;6.120;2023-12-14T13:02:06;6.80;99.90
12911;DHT22;6523;49.758;6.120;2023-12-14T13:04:32;6.80;99.90
12911;DHT22;6523;49.758;6.120;2023-12-14T13:06:57;6.80;99.90
12911;DHT22;6523;49.758;6.120;2023-12-14T13:09:23;6.80;99.90
12911;DHT22;6523;49.758;6.120;2023-12-14T13:11:49;6.80;99.90
12911;DHT22;6523;49.758;6.120;2023-12-14T13:14:15;6.70;99.90
12911;DHT22;6523;49.758;6.120;2023-12-14T13:16:42;6.60;99.90
12911;DHT22;6523;49.758;6.120;2023-12-14T13:19:08;6.60;99.90
12911;DHT22;6523;49.758;6.120;2023-12-14T13:21:35;6.60;99.90
12911;DHT22;6523;49.758;6.120;2023-12-14T13:24:01;6.60;99.90
12911;DHT22;6523;49.758;6.120;2023-12-14T13:26:27;6.60;99.90
12911;DHT22;6523;49.758;6.120;2023-12-14T13:28:53;6.60;99.90
12911;DHT22;6523;49.758;6.120;2023-12-14T13:31:19;6.60;99.90
12911;DHT22;6523;49.758;6.120;2023-12-14T13:33:48;6.60;99.90
12911;DHT22;6523;49.758;6.120;2023-12-14T13:36:14;6.60;99.90
12911;DHT22;6523;49.758;6.120;2023-12-14T13:38:41;6.50;99.90
12911;DHT22;6523;49.758;6.120;2023-12-14T13:41:07;6.60;99.90
12911;DHT22;6523;49.758;6.120;2023-12-14T13:43:32;6.60;99.90
12911;DHT22;6523;49.758;6.120;2023-12-14T13:45:58;6.60;99.90
12911;DHT22;6523;49.758;6.120;2023-12-14T13:48:24;6.50;99.90
12911;DHT22;6523;49.758;6.120;2023-12-14T13:50:50;6.50;99.90
12911;DHT22;6523;49.758;6.120;2023-12-14T13:53:16;6.50;99.90
12911;DHT22;6523;49.758;6.120;2023-12-14T13:55:41;6.50;99.90
12911;DHT22;6523;49.758;6.120;2023-12-14T13:58:07;6.50;99.90
12911;DHT22;6523;49.758;6.120;2023-12-14T14:00:33;6.60;99.90
12911;DHT22;6523;49.758;6.120;2023-12-14T14:03:00;6.50;99.90
12911;DHT22;6523;49.758;6.120;2023-12-14T14:05:25;6.60;99.90
12911;DHT22;6523;49.758;6.120;2023-12-14T14:07:52;6.50;99.90
12911;DHT22;6523;49.758;6.120;2023-12-14T14:10:18;6.60;99.90
12911;DHT22;6523;49.758;6.120;2023-12-14T14:12:45;6.60;99.90
12911;DHT22;6523;49.758;6.120;2023-12-14T14:15:10;6.60;99.90
12911;DHT22;6523;49.758;6.120;2023-12-14T14:17:36;6.60;99.90
12911;DHT22;6523;49.758;6.120;2023-12-14T14:20:02;6.70;99.90
12911;DHT22;6523;49.758;6.120;2023-12-14T14:22:28;6.70;99.90
12911;DHT22;6523;49.758;6.120;2023-12-14T14:24:54;6.70;99.90
12911;DHT22;6523;49.758;6.120;2023-12-14T14:27:19;6.70;99.90
12911;DHT22;6523;49.758;6.120;2023-12-14T14:29:45;6.70;99.90
12911;DHT22;6523;49.758;6.120;2023-12-14T14:32:10;6.70;99.90
12911;DHT22;6523;49.758;6.120;2023-12-14T14:34:37;6.70;99.90
12911;DHT22;6523;49.758;6.120;2023-12-14T14:37:02;6.70;99.90
12911;DHT22;6523;49.758;6.120;2023-12-14T14:39:28;6.70;99.90
12911;DHT22;6523;49.758;6.120;2023-12-14T14:41:54;6.70;99.90
12911;DHT22;6523;49.758;6.120;2023-12-14T14:44:19;6.70;99.90
12911;DHT22;6523;49.758;6.120;2023-12-14T14:46:45;6.70;99.90
12911;DHT22;6523;49.758;6.120;2023-12-14T14:49:11;6.60;99.90
12911;DHT22;6523;49.758;6.120;2023-12-14T14:51:37;6.70;99.90
12911;DHT22;6523;49.758;6.120;2023-12-14T14:54:02;6.70;99.90
12911;DHT22;6523;49.758;6.120;2023-12-14T14:56:28;6.70;99.90
12911;DHT22;6523;49.758;6.120;2023-12-14T14:58:53;6.60;99.90
12911;DHT22;6523;49.758;6.120;2023-12-14T15:01:19;6.60;99.90
12911;DHT22;6523;49.758;6.120;2023-12-14T15:03:44;6.60;99.90
12911;DHT22;6523;49.758;6.120;2023-12-14T15:06:10;6.60;99.90
12911;DHT22;6523;49.758;6.120;2023-12-14T15:08:36;6.60;99.90
12911;DHT22;6523;49.758;6.120;2023-12-14T15:11:02;6.60;99.90
12911;DHT22;6523;49.758;6.120;2023-12-14T15:13:28;6.50;99.90
12911;DHT22;6523;49.758;6.120;2023-12-14T15:15:54;6.50;99.90
12911;DHT22;6523;49.758;6.120;2023-12-14T15:18:21;6.50;99.90
12911;DHT22;6523;49.758;6.120;2023-12-14T15:20:46;6.50;99.90
12911;DHT22;6523;49.758;6.120;2023-12-14T15:23:14;6.50;99.90
12911;DHT22;6523;49.758;6.120;2023-12-14T15:25:40;6.50;99.90
12911;DHT22;6523;49.758;6.120;2023-12-14T15:28:06;6.50;99.90
12911;DHT22;6523;49.758;6.120;2023-12-14T15:30:31;6.40;99.90
12911;DHT22;6523;49.758;6.120;2023-12-14T15:32:57;6.40;99.90
12911;DHT22;6523;49.758;6.120;2023-12-14T15:35:23;6.40;99.90
12911;DHT22;6523;49.758;6.120;2023-12-14T15:37:48;6.40;99.90
12911;DHT22;6523;49.758;6.120;2023-12-14T15:40:14;6.40;99.90
12911;DHT22;6523;49.758;6.120;2023-12-14T15:42:39;6.40;99.90
12911;DHT22;6523;49.758;6.120;2023-12-14T15:45:06;6.40;99.90
12911;DHT22;6523;49.758;6.120;2023-12-14T15:47:31;6.40;99.90
12911;DHT22;6523;49.758;6.120;2023-12-14T15:49:57;6.30;99.90
12911;DHT22;6523;49.758;6.120;2023-12-14T15:52:22;6.20;99.90
12911;DHT22;6523;49.758;6.120;2023-12-14T15:54:48;6.30;99.90
12911;DHT22;6523;49.758;6.120;2023-12-14T15:57:14;6.20;99.90
12911;DHT22;6523;49.758;6.120;2023-12-14T15:59:39;6.20;99.90
12911;DHT22;6523;49.758;6.120;2023-12-14T16:02:05;6.20;99.90
12911;DHT22;6523;49.758;6.120;2023-12-14T16:04:31;6.20;99.90
12911;DHT22;6523;49.758;6.120;2023-12-14T16:06:57;6.20;99.90